createdAt,value
2022-07-25T00:01:39.264Z,57.40
2022-07-25T00:06:42.949Z,57.40
2022-07-25T00:11:46.527Z,57.70
2022-07-25T00:16:51.560Z,57.80
2022-07-25T00:21:55.317Z,58.00
2022-07-25T00:26:58.720Z,58.20
2022-07-25T00:32:03.552Z,58.50
2022-07-25T00:37:07.722Z,58.60
2022-07-25T00:42:11.162Z,58.80
2022-07-25T00:47:16.060Z,59.10
2022-07-25T00:52:19.653Z,59.20
2022-07-25T00:57:23.282Z,59.50
2022-07-25T01:02:27.949Z,59.70
2022-07-25T01:07:31.856Z,60.10
2022-07-25T01:12:45.361Z,60.30
2022-07-25T01:17:52.523Z,61.10
2022-07-25T01:22:57.747Z,61.00
2022-07-25T01:28:01.325Z,61.20
2022-07-25T01:33:06.951Z,61.50
2022-07-25T01:38:12.194Z,61.80
2022-07-25T01:43:15.621Z,62.50
2022-07-25T01:48:20.027Z,62.30
2022-07-25T01:53:25.586Z,62.70
2022-07-25T01:58:29.588Z,63.10
2022-07-25T02:03:33.754Z,63.40
2022-07-25T02:08:38.676Z,63.80
2022-07-25T02:13:42.017Z,64.10
2022-07-25T02:18:46.237Z,64.40
2022-07-25T02:23:52.688Z,64.90
2022-07-25T02:28:56.153Z,65.30
2022-07-25T02:33:59.639Z,65.70
2022-07-25T02:39:04.491Z,66.00
2022-07-25T02:44:08.374Z,66.50
2022-07-25T02:49:11.962Z,66.80
2022-07-25T02:54:17.088Z,67.20
2022-07-25T02:59:20.193Z,67.70
2022-07-25T03:04:23.892Z,68.00
2022-07-25T03:09:28.697Z,68.40
2022-07-25T03:14:32.310Z,68.90
2022-07-25T03:19:35.884Z,69.20
2022-07-25T03:24:40.424Z,69.60
2022-07-25T03:29:43.850Z,70.00
2022-07-25T03:34:47.274Z,70.30
2022-07-25T03:39:52.056Z,70.70
2022-07-25T03:44:55.445Z,71.10
2022-07-25T03:49:58.921Z,71.50
2022-07-25T03:55:04.077Z,71.90
2022-07-25T04:00:08.414Z,72.00
2022-07-25T04:05:11.793Z,72.30
2022-07-25T04:10:16.740Z,72.50
2022-07-25T04:15:20.370Z,72.80
2022-07-25T04:20:24.067Z,73.00
2022-07-25T04:25:31.550Z,73.20
2022-07-25T04:30:34.872Z,73.50
2022-07-25T04:35:38.481Z,73.70
2022-07-25T04:40:43.730Z,73.90
2022-07-25T04:45:47.309Z,73.90
2022-07-25T04:50:50.818Z,73.80
2022-07-25T04:55:55.725Z,74.20
2022-07-25T05:00:59.074Z,73.10
2022-07-25T05:06:02.747Z,70.50
2022-07-25T05:11:07.855Z,68.10
2022-07-25T05:16:11.458Z,65.90
2022-07-25T05:21:15.012Z,63.70
2022-07-25T05:26:20.058Z,64.70
2022-07-25T05:31:23.890Z,65.90
2022-07-25T05:36:27.590Z,67.10
2022-07-25T05:41:32.306Z,67.80
2022-07-25T05:46:36.051Z,68.10
2022-07-25T05:51:39.569Z,68.50
2022-07-25T05:56:44.847Z,68.90
2022-07-25T06:01:48.771Z,68.50
2022-07-25T06:06:52.785Z,68.50
2022-07-25T06:12:00.352Z,68.90
2022-07-25T06:17:04.642Z,68.20
2022-07-25T06:22:09.426Z,68.10
2022-07-25T06:27:19.963Z,67.90
2022-07-25T06:32:24.248Z,67.80
2022-07-25T06:37:27.941Z,67.70
2022-07-25T06:42:33.732Z,67.40
2022-07-25T06:47:37.025Z,67.30
2022-07-25T06:52:40.592Z,67.00
2022-07-25T06:57:45.355Z,66.80
2022-07-25T07:02:49.890Z,66.40
2022-07-25T07:07:53.308Z,66.20
2022-07-25T07:13:08.284Z,66.00
2022-07-25T07:18:12.013Z,65.70
2022-07-25T07:23:16.888Z,65.70
2022-07-25T07:28:22.851Z,65.30
2022-07-25T07:33:26.530Z,65.00
2022-07-25T07:38:30.162Z,64.70
2022-07-25T07:43:35.298Z,64.30
2022-07-25T07:48:39.004Z,63.70
2022-07-25T07:54:00.275Z,63.10
2022-07-25T07:59:06.148Z,62.80
2022-07-25T08:04:09.816Z,62.20
2022-07-25T08:09:13.543Z,61.50
2022-07-25T08:14:18.513Z,60.80
2022-07-25T08:19:22.321Z,60.00
2022-07-25T08:24:26.157Z,59.10
2022-07-25T08:29:31.276Z,58.50
2022-07-25T08:34:34.732Z,57.80
2022-07-25T08:39:38.537Z,57.30
2022-07-25T08:44:45.175Z,56.40
2022-07-25T08:49:48.867Z,55.50
2022-07-25T08:54:52.899Z,55.00
2022-07-25T09:00:00.267Z,54.50
2022-07-25T09:05:03.574Z,54.00
2022-07-25T09:10:14.178Z,53.30
2022-07-25T09:15:25.462Z,52.70
2022-07-25T09:20:38.598Z,52.00
2022-07-25T09:25:42.402Z,51.50
2022-07-25T09:30:56.821Z,51.10
2022-07-25T09:36:00.620Z,50.60
2022-07-25T09:41:04.390Z,50.30
2022-07-25T09:46:09.989Z,49.60
2022-07-25T09:51:13.429Z,49.30
2022-07-25T09:56:17.087Z,48.80
2022-07-25T10:01:24.084Z,48.20
2022-07-25T10:06:31.911Z,47.80
2022-07-25T10:11:34.997Z,47.40
2022-07-25T10:16:48.080Z,46.70
2022-07-25T10:21:56.317Z,46.30
2022-07-25T10:27:06.938Z,46.20
2022-07-25T10:32:12.850Z,45.70
2022-07-25T10:37:18.227Z,45.60
2022-07-25T10:42:22.750Z,45.50
2022-07-25T10:47:28.207Z,45.20
2022-07-25T10:52:32.202Z,45.00
2022-07-25T10:57:41.734Z,44.90
2022-07-25T11:03:00.894Z,44.60
2022-07-25T11:08:21.314Z,44.10
2022-07-25T11:13:25.299Z,43.90
2022-07-25T11:18:39.040Z,43.60
2022-07-25T11:23:42.695Z,43.20
2022-07-25T11:28:47.087Z,43.10
2022-07-25T11:33:51.801Z,42.80
2022-07-25T11:38:55.550Z,42.60
2022-07-25T11:43:58.726Z,42.50
2022-07-25T11:49:09.323Z,42.60
2022-07-25T11:54:13.739Z,42.50
2022-07-25T11:59:17.229Z,42.50
2022-07-25T12:04:22.294Z,42.30
2022-07-25T12:09:25.801Z,42.20
2022-07-25T12:14:33.601Z,42.20
2022-07-25T12:19:41.087Z,42.00
2022-07-25T12:24:44.519Z,41.90
2022-07-25T12:29:47.888Z,41.70
2022-07-25T12:34:52.840Z,41.70
2022-07-25T12:39:56.292Z,41.70
2022-07-25T12:45:00.114Z,41.60
2022-07-25T12:50:05.676Z,41.40
2022-07-25T12:55:10.098Z,41.20
2022-07-25T13:00:15.048Z,41.10
2022-07-25T13:05:19.978Z,41.00
2022-07-25T13:10:23.107Z,40.70
2022-07-25T13:15:28.803Z,40.40
2022-07-25T13:20:36.050Z,40.20
2022-07-25T13:25:39.484Z,39.90
2022-07-25T13:30:43.046Z,39.60
2022-07-25T13:35:48.977Z,39.40
2022-07-25T13:40:56.855Z,39.30
2022-07-25T13:46:02.598Z,39.20
2022-07-25T13:51:07.217Z,39.00
2022-07-25T13:56:10.604Z,38.90
2022-07-25T14:01:13.900Z,38.80
2022-07-25T14:06:18.735Z,38.70
2022-07-25T14:11:23.949Z,38.60
2022-07-25T14:16:30.926Z,38.50
2022-07-25T14:21:35.961Z,38.40
2022-07-25T14:26:39.430Z,38.40
2022-07-25T14:31:42.526Z,38.40
2022-07-25T14:36:47.755Z,38.30
2022-07-25T14:41:51.129Z,38.30
2022-07-25T14:46:54.683Z,38.30
2022-07-25T14:51:59.677Z,38.40
2022-07-25T14:57:03.383Z,38.30
2022-07-25T15:02:06.864Z,38.40
2022-07-25T15:07:11.791Z,38.40
2022-07-25T15:12:17.219Z,38.30
2022-07-25T15:17:20.816Z,38.70
2022-07-25T15:22:25.869Z,38.30
2022-07-25T15:27:29.265Z,38.70
2022-07-25T15:32:32.867Z,38.70
2022-07-25T15:37:38.125Z,39.20
2022-07-25T15:42:41.775Z,38.80
2022-07-25T15:47:50.531Z,39.20
2022-07-25T15:52:55.951Z,39.00
2022-07-25T15:57:59.729Z,39.40
2022-07-25T16:03:03.367Z,39.00
2022-07-25T16:08:09.980Z,39.40
2022-07-25T16:13:13.333Z,39.30
2022-07-25T16:18:16.765Z,39.90
2022-07-25T16:23:23.218Z,39.90
2022-07-25T16:28:26.553Z,40.60
2022-07-25T16:33:30.110Z,53.30
2022-07-25T16:38:34.971Z,68.20
2022-07-25T16:43:38.177Z,99.90
2022-07-25T16:48:41.665Z,99.90
2022-07-25T16:53:46.718Z,99.90
2022-07-25T16:58:50.411Z,99.90
2022-07-25T17:03:54.286Z,99.90
2022-07-25T17:08:59.724Z,99.90
2022-07-25T17:14:04.519Z,99.90
2022-07-25T17:19:08.541Z,99.90
2022-07-25T17:24:13.433Z,99.90
2022-07-25T17:29:16.974Z,99.90
2022-07-25T17:34:21.732Z,99.90
2022-07-25T17:39:26.249Z,99.90
2022-07-25T17:44:29.670Z,99.90
2022-07-25T17:49:32.968Z,99.90
2022-07-25T17:54:37.662Z,99.90
2022-07-25T17:59:41.226Z,99.90
2022-07-25T18:04:44.805Z,99.90
2022-07-25T18:09:49.643Z,99.90
2022-07-25T18:14:52.886Z,99.90
2022-07-25T18:19:56.720Z,99.90
2022-07-25T18:25:01.695Z,99.90
2022-07-25T18:30:07.867Z,99.90
2022-07-25T18:35:12.035Z,99.90
2022-07-25T18:40:16.869Z,99.90
2022-07-25T18:45:20.612Z,99.90
2022-07-25T18:50:25.234Z,99.90
2022-07-25T18:55:30.459Z,99.90
2022-07-25T19:00:34.306Z,99.90
2022-07-25T19:05:37.907Z,99.90
2022-07-25T19:10:42.901Z,99.90
2022-07-25T19:15:46.519Z,99.90
2022-07-25T19:20:50.124Z,99.90
2022-07-25T19:25:54.777Z,99.90
2022-07-25T19:30:58.260Z,99.90
2022-07-25T19:36:01.673Z,99.90
2022-07-25T19:41:06.591Z,99.90
2022-07-25T19:46:09.953Z,99.90
2022-07-25T19:51:13.952Z,99.90
2022-07-25T19:56:18.789Z,99.90
2022-07-25T20:01:22.237Z,99.90
2022-07-25T20:06:27.807Z,99.90
2022-07-25T20:11:32.465Z,99.90
2022-07-25T20:16:36.150Z,99.90
2022-07-25T20:21:40.208Z,99.90
2022-07-25T20:26:44.909Z,99.90
2022-07-25T20:31:48.534Z,99.90
2022-07-25T20:36:52.078Z,99.90
2022-07-25T20:41:56.955Z,99.90
2022-07-25T20:47:00.016Z,99.90
2022-07-25T20:52:03.441Z,99.90
2022-07-25T20:57:08.439Z,99.90
2022-07-25T21:02:11.869Z,99.90
2022-07-25T21:07:15.334Z,99.90
2022-07-25T21:12:20.126Z,99.90
2022-07-25T21:17:23.568Z,99.90
2022-07-25T21:22:26.971Z,99.90
2022-07-25T21:27:31.656Z,99.90
2022-07-25T21:32:35.185Z,99.90
2022-07-25T21:37:39.014Z,99.90
2022-07-25T21:42:44.262Z,99.90
2022-07-25T21:47:47.550Z,99.90
2022-07-25T21:52:51.272Z,99.90
2022-07-25T21:57:56.022Z,99.90
2022-07-25T22:02:59.737Z,99.90
2022-07-25T22:08:03.285Z,99.90
2022-07-25T22:13:12.908Z,99.90
2022-07-25T22:18:15.963Z,99.90
2022-07-25T22:23:19.342Z,99.90
2022-07-25T22:28:24.012Z,99.90
2022-07-25T22:33:28.552Z,99.90
2022-07-25T22:38:31.737Z,99.90
2022-07-25T22:43:57.068Z,99.90
2022-07-25T22:49:00.635Z,99.90
2022-07-25T22:54:05.841Z,99.90
2022-07-25T22:59:11.140Z,99.90
2022-07-25T23:04:15.215Z,99.90
2022-07-25T23:09:18.871Z,99.90
2022-07-25T23:14:23.820Z,99.90
2022-07-25T23:19:27.246Z,99.90
2022-07-25T23:24:34.385Z,99.90
2022-07-25T23:29:42.854Z,99.90
2022-07-25T23:34:46.164Z,99.90
2022-07-25T23:39:49.661Z,99.90
2022-07-25T23:44:54.487Z,99.90
2022-07-25T23:49:58.883Z,99.90
2022-07-25T23:55:02.335Z,99.90
